Aérodrome :
LOGIN :

S'inscrire | Disclaimer

   EN    FR    IT 

 










Légende :    VFR   VFR Marginal   IFR   IFR Intensif   IFR Très Intensif
Visi : 
Plafond : 
>= 8 km
>= 3000ft
5 à 8 km
1000 à 3000 ft
1500m à 5 km
500 à 1000 ft
800 à 1500m
200 à 500 ft
< 800m
< 200 ft
Symboles :   Orages  Brouillard  Fortes neiges  Fortes précipitations  Vent > 20 kt
SIGMETs :   Divers  Orages  Givrage  Turbulence  Onde Orograph.  Cendres Volcan.







- Altitude de l'aérodrome : 433 ft
- Code IATA : CCF
- Voir les cartes d'approche


LFMK - Carcassonne

DERNIER METAR :
  • 172230Z AUTO 03002KT 6000 SCT038 BKN080 BKN100 15/14 Q1015

METARs EXPIRÉS :
  • 172200Z AUTO VRB01KT 8000 SCT034 BKN041 BKN056 15/14 Q1015
  • 172130Z AUTO VRB02KT 6000 FEW039 BKN052 OVC220 15/14 Q1015
  • 172100Z AUTO 14002KT 5000 BR FEW039 SCT180 BKN220 15/14 Q1015
  • 172030Z AUTO 00000KT 6000 NSC 15/14 Q1015
  • 172000Z AUTO VRB01KT 7000 NSC 16/14 Q1015
  • 171930Z AUTO 10002KT CAVOK 16/14 Q1015

TAF TAF LFMK
Valide du 17 à 15h jusqu'au 18 à 15h UTC


171400Z 1715/1815 VRB02KT 9999 BKN020
TEMPO 1720/1815 1200 SHRA BR BKN006 BKN020TCU
Pas de NOTAMs connus pour ce terrain.



MET'MAP, la Météo Aéronautique d'un coup d'oeil ! - Copyright ORBIFLY Décembre 2007 - Disclaimer

ORBIFLY MET'MAP TEAM :

Programmation & Développement : Alexandra Zaïnal
Conception & Développement : Baudouin d'Aumeries
Co-Programmation & Développement : Marc-Olivier Méhu
Soutien technique & logistique : Manuel Goepfert

Contact : metmap@orbifly.com




SOURCES & CREDITS :

   NOAA